Terminal Aerodrome Forecast
Issued by NWS King Salmon, AK

Home | Current Version | Previous Version | Text Only | Print | Product List | Glossary On
Versions: 1 2 3 4 5 6 7 8 9 10 11 12 13 14 15 16 17 18 19 20 21 22 23 24 25 26 27 28 29 30 31 32 33 34 35 36 37 38 39
000
FTAK31 PANC 061743
TAFAKN
TAF
PAKN 061743Z 0618/0718 10009KT P6SM -SHRA SCT035 BKN050 OVC080
     FM062200 15010KT P6SM -SHRA SCT025 BKN035
     FM071200 15007KT 6SM BR VCSH SCT015 BKN025=

USA.gov is the U.S. government's official web portal to all federal, state and local government web resources and services.